createdAt,value
2023-03-19T00:01:16.808Z,8.10
2023-03-19T00:03:49.844Z,8.00
2023-03-19T00:06:23.838Z,8.00
2023-03-19T00:08:56.874Z,7.90
2023-03-19T00:11:30.020Z,7.90
2023-03-19T00:14:03.286Z,7.90
2023-03-19T00:16:37.722Z,7.90
2023-03-19T00:19:10.902Z,7.90
2023-03-19T00:21:44.036Z,7.80
2023-03-19T00:24:17.528Z,7.80
2023-03-19T00:26:51.015Z,7.70
2023-03-19T00:29:24.357Z,7.70
2023-03-19T00:31:58.728Z,7.60
2023-03-19T00:34:31.830Z,7.60
2023-03-19T00:37:05.276Z,7.60
2023-03-19T00:39:38.519Z,7.70
2023-03-19T00:42:12.002Z,7.70
2023-03-19T00:44:45.096Z,7.70
2023-03-19T00:47:19.683Z,7.70
2023-03-19T00:49:52.717Z,7.70
2023-03-19T00:52:25.828Z,7.70
2023-03-19T00:54:58.879Z,7.70
2023-03-19T00:57:31.953Z,7.70
2023-03-19T01:00:06.370Z,7.70
2023-03-19T01:02:40.825Z,7.70
2023-03-19T01:05:13.998Z,7.70
2023-03-19T01:07:47.203Z,7.70
2023-03-19T01:10:20.598Z,7.70
2023-03-19T01:12:53.825Z,7.80
2023-03-19T01:15:26.920Z,7.80
2023-03-19T01:18:01.340Z,7.80
2023-03-19T01:20:34.603Z,7.80
2023-03-19T01:23:08.606Z,7.90
2023-03-19T01:25:41.673Z,7.80
2023-03-19T01:28:14.787Z,7.80
2023-03-19T01:30:48.055Z,7.80
2023-03-19T01:33:25.462Z,7.80
2023-03-19T01:35:59.588Z,7.80
2023-03-19T01:38:33.280Z,7.80
2023-03-19T01:41:07.554Z,7.80
2023-03-19T01:43:40.708Z,7.80
2023-03-19T01:46:24.308Z,7.80
2023-03-19T01:49:01.434Z,7.90
2023-03-19T01:51:41.035Z,7.90
2023-03-19T01:54:17.966Z,7.80
2023-03-19T01:56:54.759Z,7.80
2023-03-19T01:59:31.718Z,7.80
2023-03-19T02:02:11.054Z,7.80
2023-03-19T02:04:48.535Z,7.90
2023-03-19T02:07:22.457Z,7.90
2023-03-19T02:09:55.966Z,7.90
2023-03-19T02:12:29.332Z,8.00
2023-03-19T02:15:02.452Z,8.00
2023-03-19T02:17:35.952Z,7.90
2023-03-19T02:20:19.377Z,8.00
2023-03-19T02:23:04.146Z,7.90
2023-03-19T02:25:44.615Z,7.90
2023-03-19T02:28:22.276Z,7.90
2023-03-19T02:30:55.536Z,7.90
2023-03-19T02:33:28.741Z,7.90
2023-03-19T02:36:04.462Z,7.90
2023-03-19T02:38:38.924Z,7.90
2023-03-19T02:41:12.430Z,7.90
2023-03-19T02:43:47.002Z,7.90
2023-03-19T02:46:20.101Z,7.80
2023-03-19T02:48:53.715Z,7.80
2023-03-19T02:51:27.266Z,7.70
2023-03-19T02:54:00.940Z,7.70
2023-03-19T02:56:34.096Z,7.70
2023-03-19T02:59:09.454Z,7.70
2023-03-19T03:01:42.673Z,7.70
2023-03-19T03:04:16.738Z,7.70
2023-03-19T03:06:49.762Z,7.70
2023-03-19T03:09:22.811Z,7.70
2023-03-19T03:11:55.964Z,7.70
2023-03-19T03:14:30.715Z,7.70
2023-03-19T03:17:03.755Z,7.80
2023-03-19T03:19:37.435Z,7.80
2023-03-19T03:22:10.951Z,7.80
2023-03-19T03:24:44.175Z,7.90
2023-03-19T03:27:17.320Z,7.90
2023-03-19T03:29:52.140Z,7.90
2023-03-19T03:32:25.333Z,7.80
2023-03-19T03:34:58.467Z,7.70
2023-03-19T03:37:31.874Z,7.80
2023-03-19T03:40:09.020Z,7.80
2023-03-19T03:42:42.058Z,7.70
2023-03-19T03:45:16.700Z,7.80
2023-03-19T03:47:49.746Z,7.90
2023-03-19T03:50:22.785Z,7.90
2023-03-19T03:52:55.933Z,7.90
2023-03-19T03:55:29.239Z,7.90
2023-03-19T03:58:02.927Z,7.90
2023-03-19T04:00:37.414Z,7.90
2023-03-19T04:03:10.530Z,7.90
2023-03-19T04:05:44.548Z,7.90
2023-03-19T04:08:18.023Z,7.90
2023-03-19T04:10:51.180Z,7.90
2023-03-19T04:13:24.283Z,7.90
2023-03-19T04:15:58.653Z,7.90
2023-03-19T04:18:31.695Z,7.90
2023-03-19T04:21:05.622Z,7.90
2023-03-19T04:23:38.655Z,7.90
2023-03-19T04:26:12.258Z,7.90
2023-03-19T04:28:45.696Z,7.90
2023-03-19T04:31:20.129Z,7.80
2023-03-19T04:33:53.456Z,7.60
2023-03-19T04:36:26.583Z,7.50
2023-03-19T04:38:59.741Z,7.40
2023-03-19T04:41:33.151Z,7.40
2023-03-19T04:44:06.341Z,7.40
2023-03-19T04:46:40.817Z,7.50
2023-03-19T04:49:14.247Z,7.50
2023-03-19T04:51:47.391Z,7.60
2023-03-19T04:54:20.509Z,7.60
2023-03-19T04:56:53.978Z,7.70
2023-03-19T04:59:27.293Z,7.70
2023-03-19T05:02:01.667Z,7.80
2023-03-19T05:04:34.910Z,7.80
2023-03-19T05:07:08.429Z,7.80
2023-03-19T05:09:43.166Z,7.80
2023-03-19T05:12:16.249Z,7.80
2023-03-19T05:14:49.370Z,7.80
2023-03-19T05:17:23.721Z,7.80
2023-03-19T05:19:57.090Z,7.90
2023-03-19T05:22:30.110Z,7.80
2023-03-19T05:25:03.146Z,7.90
2023-03-19T05:27:36.234Z,7.90
2023-03-19T05:30:11.108Z,7.90
2023-03-19T05:32:47.085Z,7.90
2023-03-19T05:35:20.305Z,7.90
2023-03-19T05:37:53.396Z,7.90
2023-03-19T05:40:26.717Z,8.00
2023-03-19T05:42:59.785Z,8.00
2023-03-19T05:45:32.848Z,7.90
2023-03-19T05:48:09.003Z,7.90
2023-03-19T05:50:42.533Z,8.00
2023-03-19T05:53:15.679Z,8.00
2023-03-19T05:55:48.728Z,8.00
2023-03-19T05:58:21.968Z,8.00
2023-03-19T06:00:56.532Z,7.90
2023-03-19T06:03:30.937Z,7.90
2023-03-19T06:06:04.190Z,8.00
2023-03-19T06:08:37.461Z,7.90
2023-03-19T06:11:10.880Z,7.80
2023-03-19T06:13:44.404Z,7.80
2023-03-19T06:16:17.597Z,7.90
2023-03-19T06:18:52.020Z,7.90
2023-03-19T06:21:29.448Z,8.00
2023-03-19T06:24:02.475Z,8.00
2023-03-19T06:26:35.861Z,8.00
2023-03-19T06:29:08.993Z,7.90
2023-03-19T06:31:42.054Z,7.90
2023-03-19T06:34:16.588Z,7.90
2023-03-19T06:36:49.601Z,8.00
2023-03-19T06:39:22.947Z,8.00
2023-03-19T06:41:56.014Z,8.10
2023-03-19T06:44:29.136Z,8.10
2023-03-19T06:47:02.183Z,8.10
2023-03-19T06:49:36.553Z,8.10
2023-03-19T06:52:09.623Z,8.10
2023-03-19T06:54:42.670Z,8.10
2023-03-19T06:57:15.822Z,8.20
2023-03-19T06:59:48.894Z,8.10
2023-03-19T07:02:22.227Z,8.20
2023-03-19T07:04:56.613Z,8.10
2023-03-19T07:07:29.773Z,8.20
2023-03-19T07:10:02.949Z,8.30
2023-03-19T07:12:36.202Z,8.40
2023-03-19T07:15:10.023Z,8.40
2023-03-19T07:17:44.841Z,8.50
2023-03-19T07:20:19.705Z,8.60
2023-03-19T07:22:52.908Z,8.70
2023-03-19T07:25:26.035Z,8.60
2023-03-19T07:27:59.150Z,8.60
2023-03-19T07:30:32.996Z,8.70
2023-03-19T07:33:07.333Z,8.70
2023-03-19T07:35:42.067Z,8.80
2023-03-19T07:38:15.735Z,8.80
2023-03-19T07:41:01.470Z,8.80
2023-03-19T07:43:35.965Z,8.80
2023-03-19T07:46:09.052Z,8.90
2023-03-19T07:48:42.158Z,8.90
2023-03-19T07:51:16.550Z,8.90
2023-03-19T07:53:50.167Z,9.00
2023-03-19T07:56:23.296Z,9.10
2023-03-19T07:58:56.449Z,9.20
2023-03-19T08:01:29.477Z,9.30
2023-03-19T08:04:02.559Z,9.40
2023-03-19T08:06:38.460Z,9.50
2023-03-19T08:09:11.888Z,9.50
2023-03-19T08:11:44.884Z,9.50
2023-03-19T08:14:22.438Z,9.70
2023-03-19T08:16:55.572Z,9.80
2023-03-19T08:19:28.808Z,10.00
2023-03-19T08:22:03.286Z,10.10
2023-03-19T08:24:36.530Z,10.30
2023-03-19T08:27:10.128Z,10.30
2023-03-19T08:29:43.166Z,10.20
2023-03-19T08:32:16.335Z,10.40
2023-03-19T08:34:49.866Z,10.50
2023-03-19T08:37:24.326Z,10.50
2023-03-19T08:39:57.482Z,10.50
2023-03-19T08:42:30.628Z,10.60
2023-03-19T08:45:03.760Z,10.70
2023-03-19T08:47:36.985Z,10.80
2023-03-19T08:50:12.205Z,10.90
2023-03-19T08:52:46.802Z,11.00
2023-03-19T08:55:19.891Z,11.00
2023-03-19T08:57:52.985Z,11.00
2023-03-19T09:00:26.282Z,11.10
2023-03-19T09:02:59.378Z,11.20
2023-03-19T09:05:32.374Z,11.30
2023-03-19T09:08:07.577Z,11.40
2023-03-19T09:10:40.996Z,11.60
2023-03-19T09:13:14.012Z,11.60
2023-03-19T09:15:47.926Z,11.80
2023-03-19T09:18:23.990Z,12.00
2023-03-19T09:20:57.150Z,11.90
2023-03-19T09:23:31.531Z,11.90
2023-03-19T09:26:04.878Z,12.00
2023-03-19T09:28:38.070Z,12.10
2023-03-19T09:31:11.850Z,12.20
2023-03-19T09:33:45.044Z,12.30
2023-03-19T09:36:18.846Z,12.40
2023-03-19T09:38:53.397Z,12.50
2023-03-19T09:41:36.922Z,12.60
2023-03-19T09:44:14.585Z,12.70
2023-03-19T09:46:54.864Z,12.80
2023-03-19T09:49:32.504Z,13.00
2023-03-19T09:52:19.194Z,13.00
2023-03-19T09:54:56.636Z,13.20
2023-03-19T09:57:29.981Z,13.40
2023-03-19T10:00:06.744Z,13.60
2023-03-19T10:02:43.883Z,13.60
2023-03-19T10:05:25.490Z,13.70
2023-03-19T10:08:27.772Z,13.70
2023-03-19T10:11:31.731Z,14.00
2023-03-19T10:14:23.143Z,14.10
2023-03-19T10:17:00.327Z,14.30
2023-03-19T10:19:41.919Z,14.40
2023-03-19T10:22:20.628Z,14.40
2023-03-19T10:24:55.858Z,14.40
2023-03-19T10:27:30.505Z,14.40
2023-03-19T10:30:03.624Z,14.60
2023-03-19T10:32:43.033Z,14.60
2023-03-19T10:35:23.208Z,14.70
2023-03-19T10:37:56.221Z,14.90
2023-03-19T10:40:39.815Z,15.10
2023-03-19T10:43:21.564Z,14.90
2023-03-19T10:45:54.605Z,14.70
2023-03-19T10:48:29.176Z,14.70
2023-03-19T10:51:05.930Z,15.00
2023-03-19T10:53:41.752Z,15.20
2023-03-19T10:56:23.049Z,15.40
2023-03-19T10:59:06.879Z,15.50
2023-03-19T11:01:42.885Z,15.10
2023-03-19T11:04:20.891Z,14.80
2023-03-19T11:06:55.286Z,14.80
2023-03-19T11:09:35.774Z,15.20
2023-03-19T11:12:18.853Z,15.40
2023-03-19T11:14:55.409Z,15.80
2023-03-19T11:17:38.383Z,15.60
2023-03-19T11:20:24.676Z,15.50
2023-03-19T11:23:02.195Z,15.80
2023-03-19T11:25:40.105Z,15.80
2023-03-19T11:28:15.490Z,15.80
2023-03-19T11:30:58.306Z,15.80
2023-03-19T11:34:02.386Z,15.90
2023-03-19T11:36:44.149Z,16.00
2023-03-19T11:39:28.528Z,16.10
2023-03-19T11:42:36.935Z,16.00
2023-03-19T11:45:20.696Z,16.10
2023-03-19T11:48:12.361Z,16.10
2023-03-19T11:50:52.322Z,16.10
2023-03-19T11:53:29.531Z,16.40
2023-03-19T11:56:10.809Z,16.50
2023-03-19T11:59:14.466Z,16.60
2023-03-19T12:02:32.973Z,16.60
2023-03-19T12:05:32.952Z,16.70
2023-03-19T12:08:20.885Z,17.00
2023-03-19T12:11:05.142Z,16.90
2023-03-19T12:14:00.892Z,17.10
2023-03-19T12:16:51.111Z,17.20
2023-03-19T12:19:43.068Z,16.90
2023-03-19T12:22:30.259Z,17.00
2023-03-19T12:25:27.211Z,16.80
2023-03-19T12:28:11.803Z,16.80
2023-03-19T12:30:51.448Z,16.80
2023-03-19T12:33:41.153Z,16.90
2023-03-19T12:36:22.264Z,16.90
2023-03-19T12:39:02.969Z,17.00
2023-03-19T12:41:43.809Z,17.20
2023-03-19T12:44:24.472Z,17.30
2023-03-19T12:47:02.275Z,17.30
2023-03-19T12:49:40.466Z,17.30
2023-03-19T12:52:22.409Z,17.10
2023-03-19T12:55:04.614Z,17.20
2023-03-19T12:57:44.917Z,17.20
2023-03-19T13:00:27.323Z,17.10
2023-03-19T13:03:08.654Z,17.20
2023-03-19T13:05:46.227Z,17.20
2023-03-19T13:08:29.013Z,17.70
2023-03-19T13:11:07.765Z,17.70
2023-03-19T13:13:49.514Z,17.80
2023-03-19T13:16:37.605Z,17.90
2023-03-19T13:19:20.242Z,18.00
2023-03-19T13:21:56.774Z,18.00
2023-03-19T13:24:32.793Z,17.80
2023-03-19T13:27:10.742Z,17.60
2023-03-19T13:30:01.858Z,17.80
2023-03-19T13:32:42.404Z,17.70
2023-03-19T13:35:38.912Z,17.60
2023-03-19T13:38:22.678Z,17.50
2023-03-19T13:40:57.579Z,17.20
2023-03-19T13:43:56.438Z,17.20
2023-03-19T13:46:40.839Z,17.20
2023-03-19T13:49:29.648Z,17.00
2023-03-19T13:52:48.393Z,16.90
2023-03-19T13:55:34.377Z,16.90
2023-03-19T13:58:38.768Z,16.60
2023-03-19T14:01:36.696Z,16.60
2023-03-19T14:04:22.293Z,16.50
2023-03-19T14:06:58.427Z,16.50
2023-03-19T14:09:39.987Z,16.40
2023-03-19T14:12:26.722Z,16.30
2023-03-19T14:15:04.799Z,16.30
2023-03-19T14:17:42.583Z,16.30
2023-03-19T14:20:35.457Z,16.30
2023-03-19T14:23:38.524Z,16.00
2023-03-19T14:26:20.491Z,15.80
2023-03-19T14:29:03.780Z,15.50
2023-03-19T14:31:45.884Z,15.50
2023-03-19T14:34:26.005Z,15.30
2023-03-19T14:37:04.322Z,15.30
2023-03-19T14:39:43.142Z,15.20
2023-03-19T14:42:22.336Z,15.20
2023-03-19T14:45:44.855Z,15.00
2023-03-19T14:49:13.954Z,15.10
2023-03-19T14:52:05.889Z,15.00
2023-03-19T14:54:45.674Z,15.00
2023-03-19T14:57:21.266Z,14.90
2023-03-19T14:59:55.719Z,14.90
2023-03-19T15:02:37.907Z,14.90
2023-03-19T15:05:18.644Z,14.90
2023-03-19T15:07:57.988Z,14.80
2023-03-19T15:10:40.799Z,14.80
2023-03-19T15:13:29.263Z,14.80
2023-03-19T15:16:20.937Z,14.80
2023-03-19T15:18:54.421Z,14.90
2023-03-19T15:21:28.728Z,14.90
2023-03-19T15:24:04.648Z,14.90
2023-03-19T15:26:39.398Z,15.00
2023-03-19T15:29:13.629Z,15.00
2023-03-19T15:32:02.504Z,15.00
2023-03-19T15:34:39.461Z,15.00
2023-03-19T15:37:15.420Z,15.00
2023-03-19T15:39:53.354Z,15.00
2023-03-19T15:42:30.348Z,14.90
2023-03-19T15:45:09.458Z,14.90
2023-03-19T15:47:48.047Z,14.90
2023-03-19T15:50:25.096Z,14.80
2023-03-19T15:53:02.037Z,14.70
2023-03-19T15:55:37.780Z,14.50
2023-03-19T15:58:17.803Z,14.30
2023-03-19T16:00:54.066Z,14.00
2023-03-19T16:03:31.115Z,13.90
2023-03-19T16:06:07.020Z,13.40
2023-03-19T16:08:48.882Z,13.00
2023-03-19T16:11:31.524Z,12.80
2023-03-19T16:14:13.172Z,12.50
2023-03-19T16:16:48.875Z,12.30
2023-03-19T16:19:34.874Z,12.20
2023-03-19T16:22:15.602Z,12.10
2023-03-19T16:24:50.222Z,12.00
2023-03-19T16:27:35.923Z,12.00
2023-03-19T16:30:21.435Z,12.00
2023-03-19T16:33:01.962Z,11.80
2023-03-19T16:35:36.696Z,11.80
2023-03-19T16:38:15.473Z,11.80
2023-03-19T16:40:50.096Z,11.70
2023-03-19T16:43:25.881Z,11.70
2023-03-19T16:46:08.421Z,11.70
2023-03-19T16:48:41.696Z,11.70
2023-03-19T16:51:18.413Z,11.60
2023-03-19T16:53:51.734Z,11.50
2023-03-19T16:56:24.875Z,11.50
2023-03-19T16:59:02.723Z,11.50
2023-03-19T17:01:35.847Z,11.50
2023-03-19T17:04:17.415Z,11.50
2023-03-19T17:06:50.761Z,11.50
2023-03-19T17:09:24.002Z,11.40
2023-03-19T17:11:57.766Z,11.40
2023-03-19T17:14:33.922Z,11.40
2023-03-19T17:17:15.875Z,11.40
2023-03-19T17:19:49.465Z,11.40
2023-03-19T17:22:23.324Z,11.30
2023-03-19T17:24:56.568Z,11.30
2023-03-19T17:27:29.615Z,11.30
2023-03-19T17:30:04.395Z,11.20
2023-03-19T17:32:39.962Z,11.30
2023-03-19T17:35:17.468Z,11.20
2023-03-19T17:37:51.465Z,11.20
2023-03-19T17:40:27.626Z,11.20
2023-03-19T17:43:01.110Z,11.20
2023-03-19T17:45:35.686Z,11.10
2023-03-19T17:48:19.918Z,11.10
2023-03-19T17:50:55.666Z,11.00
2023-03-19T17:53:29.886Z,11.00
2023-03-19T17:56:03.230Z,10.90
2023-03-19T17:58:36.270Z,10.90
2023-03-19T18:01:16.254Z,10.70
2023-03-19T18:03:51.011Z,10.70
2023-03-19T18:06:26.328Z,10.70
2023-03-19T18:09:00.807Z,10.70
2023-03-19T18:11:33.931Z,10.60
2023-03-19T18:14:07.037Z,10.50
2023-03-19T18:16:42.145Z,10.40
2023-03-19T18:19:22.123Z,10.40
2023-03-19T18:21:55.241Z,10.30
2023-03-19T18:24:28.747Z,10.20
2023-03-19T18:27:01.853Z,10.20
2023-03-19T18:29:35.008Z,10.10
2023-03-19T18:32:15.848Z,10.10
2023-03-19T18:34:48.931Z,10.10
2023-03-19T18:37:23.456Z,10.00
2023-03-19T18:39:56.542Z,9.90
2023-03-19T18:42:29.825Z,9.90
2023-03-19T18:45:02.923Z,9.90
2023-03-19T18:47:37.491Z,9.90
2023-03-19T18:50:19.041Z,10.00
2023-03-19T18:52:54.347Z,10.00
2023-03-19T18:55:30.875Z,10.00
2023-03-19T18:58:04.364Z,10.00
2023-03-19T19:00:38.760Z,10.00
2023-03-19T19:03:17.111Z,10.00
2023-03-19T19:05:53.664Z,10.00
2023-03-19T19:08:29.810Z,10.00
2023-03-19T19:11:05.578Z,10.00
2023-03-19T19:13:55.188Z,10.00
2023-03-19T19:16:35.510Z,9.90
2023-03-19T19:19:18.558Z,9.90
2023-03-19T19:21:52.225Z,9.80
2023-03-19T19:24:25.356Z,9.80
2023-03-19T19:27:01.567Z,9.80
2023-03-19T19:29:35.302Z,9.70
2023-03-19T19:32:20.847Z,9.70
2023-03-19T19:34:55.453Z,9.60
2023-03-19T19:37:28.709Z,9.60
2023-03-19T19:40:01.749Z,9.50
2023-03-19T19:42:35.841Z,9.50
2023-03-19T19:45:37.930Z,9.50
2023-03-19T19:48:16.723Z,9.50
2023-03-19T19:50:52.048Z,9.50
2023-03-19T19:54:07.495Z,9.50
2023-03-19T19:56:41.330Z,9.50
2023-03-19T19:59:16.394Z,9.50
2023-03-19T20:01:49.549Z,9.40
2023-03-19T20:04:22.687Z,9.40
2023-03-19T20:06:57.160Z,9.40
2023-03-19T20:09:30.244Z,9.50
2023-03-19T20:12:03.834Z,9.50
2023-03-19T20:14:37.281Z,9.60
2023-03-19T20:17:15.350Z,9.60
2023-03-19T20:19:49.180Z,9.60
2023-03-19T20:22:23.678Z,9.70
2023-03-19T20:24:57.950Z,9.70
2023-03-19T20:27:34.124Z,9.70
2023-03-19T20:30:17.654Z,9.60
2023-03-19T20:32:53.019Z,9.60
2023-03-19T20:35:28.872Z,9.60
2023-03-19T20:38:05.788Z,9.50
2023-03-19T20:40:44.110Z,9.60
2023-03-19T20:43:37.429Z,9.60
2023-03-19T20:46:12.502Z,9.60
2023-03-19T20:48:45.801Z,9.60
2023-03-19T20:51:23.081Z,9.60
2023-03-19T20:53:58.813Z,9.60
2023-03-19T20:56:32.031Z,9.50
2023-03-19T20:59:05.692Z,9.40
2023-03-19T21:01:38.781Z,9.30
2023-03-19T21:04:20.876Z,9.30
2023-03-19T21:06:54.493Z,9.30
2023-03-19T21:09:29.075Z,9.30
2023-03-19T21:12:02.280Z,9.20
2023-03-19T21:14:35.402Z,9.10
2023-03-19T21:17:08.438Z,9.20
2023-03-19T21:19:42.745Z,9.20
2023-03-19T21:22:22.120Z,9.20
2023-03-19T21:25:04.795Z,9.20
2023-03-19T21:27:38.439Z,9.20
2023-03-19T21:30:16.531Z,9.20
2023-03-19T21:32:51.521Z,9.20
2023-03-19T21:35:26.490Z,9.20
2023-03-19T21:37:59.547Z,9.20
2023-03-19T21:40:34.147Z,9.20
2023-03-19T21:43:07.595Z,9.20
2023-03-19T21:45:41.286Z,9.10
2023-03-19T21:48:25.214Z,9.20
2023-03-19T21:50:59.230Z,9.10
2023-03-19T21:53:32.364Z,9.10
2023-03-19T21:56:18.905Z,9.00
2023-03-19T21:58:53.471Z,9.00
2023-03-19T22:01:27.578Z,9.00
2023-03-19T22:04:00.891Z,9.00
2023-03-19T22:06:34.094Z,9.00
2023-03-19T22:09:07.543Z,9.10
2023-03-19T22:11:42.605Z,9.10
2023-03-19T22:14:19.095Z,9.10
2023-03-19T22:16:55.472Z,9.10
2023-03-19T22:19:29.170Z,9.10
2023-03-19T22:22:02.274Z,9.10
2023-03-19T22:24:35.290Z,9.10
2023-03-19T22:27:16.929Z,9.10
2023-03-19T22:29:50.244Z,9.10
2023-03-19T22:32:23.259Z,9.00
2023-03-19T22:34:56.418Z,9.10
2023-03-19T22:37:31.576Z,9.00
2023-03-19T22:40:05.135Z,9.00
2023-03-19T22:42:39.648Z,9.10
2023-03-19T22:45:27.038Z,9.10
2023-03-19T22:48:01.754Z,9.10
2023-03-19T22:50:34.837Z,9.10
2023-03-19T22:53:22.271Z,9.10
2023-03-19T22:55:55.545Z,9.10
2023-03-19T22:58:30.427Z,9.10
2023-03-19T23:01:03.569Z,9.10
2023-03-19T23:03:36.996Z,9.10
2023-03-19T23:06:29.235Z,9.10
2023-03-19T23:09:03.451Z,9.10
2023-03-19T23:11:39.369Z,9.10
2023-03-19T23:14:28.033Z,9.00
2023-03-19T23:17:07.340Z,9.00
2023-03-19T23:19:40.385Z,9.00
2023-03-19T23:22:17.388Z,9.00
2023-03-19T23:24:50.624Z,9.00
2023-03-19T23:27:26.640Z,8.90
2023-03-19T23:30:01.130Z,8.90
2023-03-19T23:32:34.252Z,8.90
2023-03-19T23:35:16.207Z,9.00
2023-03-19T23:37:49.405Z,9.00
2023-03-19T23:40:24.520Z,9.00
2023-03-19T23:42:59.127Z,9.00
2023-03-19T23:45:39.993Z,9.00
2023-03-19T23:48:16.814Z,9.00
2023-03-19T23:50:50.607Z,9.00
2023-03-19T23:53:27.183Z,9.00
2023-03-19T23:56:03.463Z,9.00
2023-03-19T23:58:42.885Z,9.00
